createdAt,value
2019-04-03T00:00:24.048Z,10.77
2019-04-03T00:02:28.450Z,10.40
2019-04-03T00:04:34.141Z,10.37
2019-04-03T00:06:38.564Z,10.60
2019-04-03T00:08:43.579Z,10.73
2019-04-03T00:10:48.919Z,10.47
2019-04-03T00:12:53.316Z,10.67
2019-04-03T00:14:57.609Z,10.93
2019-04-03T00:17:02.747Z,10.63
2019-04-03T00:19:09.144Z,10.97
2019-04-03T00:21:17.702Z,10.00
2019-04-03T00:23:27.205Z,10.30
2019-04-03T00:25:31.887Z,9.27
2019-04-03T00:27:36.157Z,10.33
2019-04-03T00:29:40.583Z,11.67
2019-04-03T00:31:45.080Z,9.83
2019-04-03T00:33:49.615Z,11.17
2019-04-03T00:35:53.995Z,9.73
2019-04-03T00:37:58.565Z,9.70
2019-04-03T00:40:02.999Z,9.33
2019-04-03T00:42:09.795Z,10.70
2019-04-03T00:44:14.746Z,9.00
2019-04-03T00:46:20.089Z,10.53
2019-04-03T00:48:26.112Z,10.37
2019-04-03T00:50:30.368Z,10.27
2019-04-03T00:52:34.642Z,9.33
2019-04-03T00:54:38.770Z,9.60
2019-04-03T00:56:42.989Z,9.13
2019-04-03T00:58:47.168Z,9.87
2019-04-03T01:00:51.401Z,9.50
2019-04-03T01:02:58.121Z,9.73
2019-04-03T01:05:02.256Z,9.53
2019-04-03T01:07:08.283Z,9.57
2019-04-03T01:09:15.534Z,9.97
2019-04-03T01:11:26.229Z,10.77
2019-04-03T01:13:31.338Z,9.30
2019-04-03T01:15:36.281Z,10.20
2019-04-03T01:17:40.543Z,9.57
2019-04-03T01:19:44.856Z,9.97
2019-04-03T01:21:49.108Z,9.83
2019-04-03T01:23:53.463Z,10.50
2019-04-03T01:25:58.096Z,9.90
2019-04-03T01:28:03.705Z,9.37
2019-04-03T01:30:08.449Z,9.90
2019-04-03T01:32:16.004Z,10.80
2019-04-03T01:34:24.782Z,9.70
2019-04-03T01:36:29.453Z,10.73
2019-04-03T01:38:33.769Z,9.87
2019-04-03T01:40:38.140Z,9.90
2019-04-03T01:42:42.232Z,9.70
2019-04-03T01:44:46.655Z,10.07
2019-04-03T01:46:50.936Z,10.90
2019-04-03T01:48:55.234Z,10.00
2019-04-03T01:51:00.295Z,10.40
2019-04-03T01:53:05.605Z,10.37
2019-04-03T01:55:12.992Z,11.80
2019-04-03T01:57:18.562Z,10.77
2019-04-03T01:59:25.432Z,11.00
2019-04-03T02:01:29.922Z,9.80
2019-04-03T02:03:36.106Z,10.57
2019-04-03T02:05:43.791Z,11.13
2019-04-03T02:07:50.780Z,10.70
2019-04-03T02:09:57.224Z,10.53
2019-04-03T02:12:02.456Z,10.97
2019-04-03T02:14:07.792Z,11.10
2019-04-03T02:16:13.299Z,10.80
2019-04-03T02:18:19.225Z,11.27
2019-04-03T02:20:24.642Z,10.70
2019-04-03T02:22:30.296Z,10.73
2019-04-03T02:24:34.519Z,10.90
2019-04-03T02:26:38.852Z,11.03
2019-04-03T02:28:42.999Z,11.60
2019-04-03T02:30:47.407Z,11.20
2019-04-03T02:32:55.199Z,11.10
2019-04-03T02:34:57.651Z,11.40
2019-04-03T02:37:01.883Z,11.80
2019-04-03T02:39:08.780Z,10.70
2019-04-03T02:41:19.991Z,12.23
2019-04-03T02:43:25.563Z,11.97
2019-04-03T02:45:29.792Z,11.50
2019-04-03T02:47:34.747Z,10.43
2019-04-03T02:49:41.493Z,11.03
2019-04-03T02:51:45.265Z,11.73
2019-04-03T02:53:49.910Z,11.50
2019-04-03T02:55:54.395Z,11.30
2019-04-03T02:57:58.701Z,10.73
2019-04-03T03:00:02.841Z,11.97
2019-04-03T03:02:11.406Z,12.00
2019-04-03T03:04:15.576Z,11.73
2019-04-03T03:06:24.366Z,10.10
2019-04-03T03:08:28.952Z,11.17
2019-04-03T03:10:33.156Z,10.83
2019-04-03T03:12:38.126Z,12.30
2019-04-03T03:14:42.662Z,11.87
2019-04-03T03:16:49.187Z,11.77
2019-04-03T03:18:53.160Z,11.17
2019-04-03T03:20:57.492Z,10.90
2019-04-03T03:23:02.142Z,11.37
2019-04-03T03:25:09.860Z,10.37
2019-04-03T03:27:19.266Z,10.50
2019-04-03T03:29:26.331Z,10.13
2019-04-03T03:31:59.126Z,10.17
2019-04-03T03:33:39.328Z,11.20
2019-04-03T03:35:46.795Z,10.10
2019-04-03T03:37:47.584Z,11.07
2019-04-03T03:39:51.804Z,10.13
2019-04-03T03:41:58.557Z,10.50
2019-04-03T03:44:03.003Z,10.30
2019-04-03T03:46:10.573Z,10.20
2019-04-03T03:48:19.195Z,10.33
2019-04-03T03:50:26.080Z,11.43
2019-04-03T03:52:31.192Z,10.40
2019-04-03T03:54:35.433Z,9.43
2019-04-03T03:56:39.569Z,10.03
2019-04-03T03:58:45.663Z,10.40
2019-04-03T04:00:52.131Z,9.80
2019-04-03T04:02:56.981Z,9.90
2019-04-03T04:05:01.762Z,10.63
2019-04-03T04:07:08.007Z,10.17
2019-04-03T04:09:17.438Z,9.90
2019-04-03T04:11:46.499Z,8.93
2019-04-03T04:13:49.813Z,9.57
2019-04-03T04:15:55.178Z,8.80
2019-04-03T04:17:59.597Z,8.57
2019-04-03T04:20:05.748Z,9.07
2019-04-03T04:22:16.617Z,10.00
2019-04-03T04:24:21.347Z,9.20
2019-04-03T04:26:29.839Z,8.63
2019-04-03T04:28:35.412Z,8.70
2019-04-03T04:30:40.806Z,8.27
2019-04-03T04:32:46.336Z,8.60
2019-04-03T04:34:51.415Z,8.50
2019-04-03T04:36:56.120Z,8.67
2019-04-03T04:39:00.415Z,8.20
2019-04-03T04:41:06.550Z,8.03
2019-04-03T04:43:12.216Z,8.30
2019-04-03T04:45:17.347Z,8.37
2019-04-03T04:47:30.768Z,8.93
2019-04-03T04:49:35.569Z,8.30
2019-04-03T04:51:40.143Z,9.10
2019-04-03T04:53:44.722Z,8.63
2019-04-03T04:55:48.938Z,8.73
2019-04-03T04:57:54.320Z,8.20
2019-04-03T04:59:58.593Z,8.33
2019-04-03T05:02:03.033Z,9.63
2019-04-03T05:04:14.745Z,8.20
2019-04-03T05:06:28.653Z,7.83
2019-04-03T05:08:35.963Z,9.17
2019-04-03T05:10:41.299Z,8.83
2019-04-03T05:12:46.011Z,8.53
2019-04-03T05:14:50.381Z,8.97
2019-04-03T05:16:55.927Z,9.40
2019-04-03T05:19:09.673Z,8.90
2019-04-03T05:21:10.009Z,9.40
2019-04-03T05:23:16.514Z,8.67
2019-04-03T05:25:24.138Z,8.97
2019-04-03T05:27:28.324Z,8.33
2019-04-03T05:29:34.213Z,9.17
2019-04-03T05:31:39.026Z,9.20
2019-04-03T05:33:43.948Z,8.40
2019-04-03T05:35:48.318Z,8.80
2019-04-03T05:37:52.479Z,8.50
2019-04-03T05:39:56.910Z,8.30
2019-04-03T05:42:01.104Z,8.33
2019-04-03T05:44:07.782Z,9.10
2019-04-03T05:46:18.926Z,8.70
2019-04-03T05:48:23.231Z,8.80
2019-04-03T05:50:27.369Z,164.23
2019-04-03T05:52:32.994Z,57.17
2019-04-03T05:54:39.369Z,54.30
2019-04-03T05:56:43.436Z,21.17
2019-04-03T05:58:55.445Z,15.90
2019-04-03T06:01:03.426Z,12.70
2019-04-03T06:02:59.470Z,23.23
2019-04-03T06:05:06.470Z,16.60
2019-04-03T06:07:13.921Z,14.13
2019-04-03T06:09:23.363Z,12.70
2019-04-03T06:11:28.212Z,9.87
2019-04-03T06:13:32.837Z,11.73
2019-04-03T06:15:37.155Z,11.60
2019-04-03T06:17:41.898Z,12.20
2019-04-03T06:19:46.251Z,12.13
2019-04-03T06:21:51.300Z,172.20
2019-04-03T06:23:55.498Z,139.70
2019-04-03T06:26:02.167Z,123.60
2019-04-03T06:28:08.107Z,390.47
2019-04-03T06:30:14.242Z,127.27
2019-04-03T06:32:29.023Z,587.27
2019-04-03T06:34:32.889Z,104.27
2019-04-03T06:36:37.219Z,389.93
2019-04-03T06:38:41.471Z,244.20
2019-04-03T06:40:47.783Z,498.27
2019-04-03T06:42:52.092Z,595.33
2019-04-03T06:44:56.920Z,574.30
2019-04-03T06:47:01.700Z,235.83
2019-04-03T06:49:10.068Z,319.57
2019-04-03T06:51:17.864Z,135.73
2019-04-03T06:53:30.556Z,622.27
2019-04-03T06:55:35.500Z,634.03
2019-04-03T06:57:41.153Z,877.73
2019-04-03T06:59:47.895Z,335.27
2019-04-03T07:01:52.913Z,167.43
2019-04-03T07:03:57.862Z,645.37
2019-04-03T07:06:02.288Z,376.73
2019-04-03T07:08:08.338Z,421.03
2019-04-03T07:10:25.042Z,735.47
2019-04-03T07:12:28.499Z,358.57
2019-04-03T07:14:32.841Z,627.10
2019-04-03T07:16:39.457Z,288.03
2019-04-03T07:18:44.183Z,148.23
2019-04-03T07:20:50.997Z,606.03
2019-04-03T07:22:55.283Z,280.33
2019-04-03T07:25:02.759Z,159.87
2019-04-03T07:27:07.692Z,458.37
2019-04-03T07:29:16.727Z,324.97
2019-04-03T07:31:25.239Z,199.40
2019-04-03T07:33:29.548Z,145.30
2019-04-03T07:35:35.011Z,100.10
2019-04-03T07:37:39.462Z,56.43
2019-04-03T07:39:43.937Z,40.73
2019-04-03T07:41:48.527Z,30.87
2019-04-03T07:43:52.680Z,23.30
2019-04-03T07:45:59.402Z,19.20
2019-04-03T07:48:06.095Z,18.90
2019-04-03T07:50:11.752Z,16.33
2019-04-03T07:52:25.882Z,17.47
2019-04-03T07:54:30.173Z,14.70
2019-04-03T07:56:34.857Z,14.37
2019-04-03T07:58:39.242Z,14.47
2019-04-03T08:00:43.383Z,14.20
2019-04-03T08:02:50.247Z,26.40
2019-04-03T08:04:57.989Z,113.10
2019-04-03T08:07:00.684Z,27.67
2019-04-03T08:09:12.419Z,51.60
2019-04-03T08:11:24.612Z,35.17
2019-04-03T08:13:29.991Z,41.27
2019-04-03T08:15:37.803Z,26.37
2019-04-03T08:17:45.617Z,496.50
2019-04-03T08:19:53.729Z,264.50
2019-04-03T08:21:57.128Z,55.00
2019-04-03T08:24:03.441Z,192.73
2019-04-03T08:26:11.804Z,62.47
2019-04-03T08:28:20.104Z,71.80
2019-04-03T08:30:28.408Z,26.20
2019-04-03T08:32:32.861Z,259.93
2019-04-03T08:34:37.550Z,43.03
2019-04-03T08:36:41.820Z,219.70
2019-04-03T08:38:46.422Z,389.30
2019-04-03T08:40:52.455Z,194.97
2019-04-03T08:42:59.288Z,122.73
2019-04-03T08:45:06.617Z,538.33
2019-04-03T08:47:14.333Z,160.93
2019-04-03T08:49:26.292Z,829.60
2019-04-03T08:51:33.303Z,370.83
2019-04-03T08:53:39.614Z,156.83
2019-04-03T08:55:45.970Z,92.23
2019-04-03T08:57:52.241Z,71.53
2019-04-03T08:59:55.704Z,35.27
2019-04-03T09:02:00.384Z,171.00
2019-04-03T09:04:05.228Z,250.33
2019-04-03T09:06:13.559Z,215.10
2019-04-03T09:08:19.323Z,255.77
2019-04-03T09:10:26.553Z,391.17
2019-04-03T09:12:31.443Z,172.37
2019-04-03T09:14:35.583Z,409.20
2019-04-03T09:16:40.098Z,365.03
2019-04-03T09:18:44.465Z,129.67
2019-04-03T09:20:49.035Z,48.57
2019-04-03T09:22:54.398Z,89.70
2019-04-03T09:25:00.605Z,153.20
2019-04-03T09:27:09.392Z,48.57
2019-04-03T09:29:15.756Z,36.83
2019-04-03T09:31:26.919Z,26.90
2019-04-03T09:33:31.367Z,24.20
2019-04-03T09:35:36.106Z,21.47
2019-04-03T09:37:41.574Z,21.10
2019-04-03T09:39:46.532Z,485.20
2019-04-03T09:41:51.102Z,53.60
2019-04-03T09:43:55.570Z,24.93
2019-04-03T09:46:00.883Z,22.80
2019-04-03T09:48:06.246Z,455.93
2019-04-03T09:50:15.557Z,98.83
2019-04-03T09:52:24.084Z,39.63
2019-04-03T09:54:28.725Z,57.13
2019-04-03T09:56:33.290Z,120.20
2019-04-03T09:58:37.454Z,27.77
2019-04-03T10:00:42.816Z,343.90
2019-04-03T10:02:48.888Z,106.30
2019-04-03T10:04:53.301Z,119.27
2019-04-03T10:06:57.515Z,211.57
2019-04-03T10:09:01.668Z,79.03
2019-04-03T10:11:08.266Z,36.00
2019-04-03T10:13:14.765Z,37.73
2019-04-03T10:15:20.477Z,99.00
2019-04-03T10:17:27.318Z,99.97
2019-04-03T10:19:31.526Z,308.17
2019-04-03T10:21:36.451Z,114.93
2019-04-03T10:23:40.915Z,413.43
2019-04-03T10:25:45.126Z,110.50
2019-04-03T10:27:49.432Z,274.00
2019-04-03T10:29:55.798Z,61.20
2019-04-03T10:31:59.518Z,160.13
2019-04-03T10:34:04.673Z,180.33
2019-04-03T10:36:12.182Z,148.97
2019-04-03T10:38:24.183Z,607.90
2019-04-03T10:40:28.762Z,79.27
2019-04-03T10:42:33.236Z,208.07
2019-04-03T10:44:37.752Z,93.07
2019-04-03T10:46:42.220Z,411.90
2019-04-03T10:48:46.501Z,164.50
2019-04-03T10:50:50.995Z,72.37
2019-04-03T10:52:55.392Z,113.87
2019-04-03T10:54:59.973Z,47.30
2019-04-03T10:57:04.182Z,32.07
2019-04-03T10:59:13.584Z,33.07
2019-04-03T11:01:25.541Z,22.33
2019-04-03T11:03:29.831Z,52.83
2019-04-03T11:05:34.133Z,19.20
2019-04-03T11:07:38.409Z,774.53
2019-04-03T11:09:42.924Z,349.67
2019-04-03T11:11:47.516Z,129.43
2019-04-03T11:13:51.933Z,200.30
2019-04-03T11:15:56.361Z,173.77
2019-04-03T11:18:04.153Z,108.30
2019-04-03T11:20:12.899Z,60.70
2019-04-03T11:22:19.059Z,147.90
2019-04-03T11:24:27.812Z,30.60
2019-04-03T11:26:32.076Z,29.13
2019-04-03T11:30:42.497Z,13.70
2019-04-03T11:30:54.715Z,14.70
2019-04-03T11:32:47.243Z,12.80
2019-04-03T11:34:53.956Z,147.07
2019-04-03T11:37:00.455Z,234.53
2019-04-03T11:39:12.315Z,59.60
2019-04-03T11:41:18.300Z,21.57
2019-04-03T11:43:23.392Z,16.43
2019-04-03T11:45:28.275Z,12.73
2019-04-03T11:47:32.551Z,12.00
2019-04-03T11:49:36.862Z,11.20
2019-04-03T11:51:41.096Z,10.53
2019-04-03T11:53:45.975Z,11.43
2019-04-03T11:55:50.444Z,10.27
2019-04-03T11:57:55.054Z,11.07
2019-04-03T11:59:59.406Z,10.90
2019-04-03T12:02:04.258Z,10.50
2019-04-03T12:04:12.755Z,10.00
2019-04-03T12:06:20.268Z,11.00
2019-04-03T12:08:28.524Z,364.70
2019-04-03T12:10:35.118Z,514.17
2019-04-03T12:12:40.151Z,638.80
2019-04-03T12:14:45.095Z,446.20
2019-04-03T12:16:49.881Z,271.90
2019-04-03T12:18:54.269Z,261.27
2019-04-03T12:20:58.710Z,523.87
2019-04-03T12:23:03.898Z,450.77
2019-04-03T12:25:11.874Z,316.67
2019-04-03T12:27:17.684Z,447.77
2019-04-03T12:29:25.946Z,546.63
2019-04-03T12:31:30.119Z,444.27
2019-04-03T12:33:34.692Z,367.50
2019-04-03T12:35:42.271Z,629.03
2019-04-03T12:37:49.451Z,323.00
2019-04-03T12:39:53.009Z,252.07
2019-04-03T12:41:57.412Z,633.50
2019-04-03T12:44:03.542Z,433.80
2019-04-03T12:46:10.615Z,537.87
2019-04-03T12:48:22.132Z,476.20
2019-04-03T12:50:29.193Z,502.13
2019-04-03T12:52:34.299Z,242.63
2019-04-03T12:54:38.764Z,339.17
2019-04-03T12:56:43.572Z,188.83
2019-04-03T12:58:47.832Z,111.00
2019-04-03T13:00:52.227Z,78.70
2019-04-03T13:02:56.664Z,43.07
2019-04-03T13:05:01.481Z,32.43
2019-04-03T13:07:13.413Z,280.63
2019-04-03T13:09:20.708Z,497.37
2019-04-03T13:11:27.307Z,126.97
2019-04-03T13:13:31.602Z,102.80
2019-04-03T13:15:37.099Z,35.73
2019-04-03T13:17:43.811Z,24.37
2019-04-03T13:19:49.660Z,22.47
2019-04-03T13:21:54.850Z,17.30
2019-04-03T13:24:00.045Z,17.20
2019-04-03T13:26:05.796Z,14.00
2019-04-03T13:28:13.056Z,154.23
2019-04-03T13:30:22.367Z,50.23
2019-04-03T13:32:28.064Z,170.97
2019-04-03T13:34:32.625Z,34.13
2019-04-03T13:36:36.944Z,17.60
2019-04-03T13:38:42.399Z,246.03
2019-04-03T13:40:46.625Z,179.17
2019-04-03T13:42:50.941Z,101.83
2019-04-03T13:44:58.183Z,136.50
2019-04-03T13:47:02.019Z,87.20
2019-04-03T13:49:08.266Z,48.83
2019-04-03T13:51:14.482Z,27.67
2019-04-03T13:53:25.061Z,17.00
2019-04-03T13:55:33.800Z,162.93
2019-04-03T13:57:35.451Z,23.57
2019-04-03T13:59:39.642Z,16.37
2019-04-03T14:01:44.143Z,13.93
2019-04-03T14:03:50.550Z,12.97
2019-04-03T14:05:54.717Z,13.67
2019-04-03T14:07:59.150Z,13.03
2019-04-03T14:10:04.495Z,14.47
2019-04-03T14:12:11.649Z,14.47
2019-04-03T14:14:18.329Z,13.30
2019-04-03T14:16:28.932Z,14.57
2019-04-03T14:18:33.442Z,14.20
2019-04-03T14:20:37.639Z,11.97
2019-04-03T14:22:42.051Z,12.20
2019-04-03T14:24:51.155Z,12.40
2019-04-03T14:26:53.440Z,12.60
2019-04-03T14:28:59.005Z,13.57
2019-04-03T14:31:16.676Z,11.93
2019-04-03T14:33:26.306Z,12.07
2019-04-03T14:35:47.468Z,13.10
2019-04-03T14:37:39.800Z,12.20
2019-04-03T14:39:46.445Z,92.37
2019-04-03T14:41:53.300Z,24.50
2019-04-03T14:43:58.716Z,13.53
2019-04-03T14:46:09.694Z,14.80
2019-04-03T14:48:17.303Z,13.30
2019-04-03T14:50:23.561Z,14.73
2019-04-03T14:52:27.788Z,14.33
2019-04-03T14:54:32.531Z,14.57
2019-04-03T14:56:37.988Z,15.60
2019-04-03T14:58:42.567Z,12.27
2019-04-03T15:00:48.531Z,13.67
2019-04-03T15:02:54.706Z,14.57
2019-04-03T15:04:58.664Z,13.10
2019-04-03T15:07:08.549Z,13.00
2019-04-03T15:09:13.420Z,13.13
2019-04-03T15:11:20.813Z,13.37
2019-04-03T15:13:28.003Z,14.90
2019-04-03T15:15:32.264Z,13.50
2019-04-03T15:17:37.868Z,12.97
2019-04-03T15:19:43.140Z,12.60
2019-04-03T15:21:48.860Z,12.07
2019-04-03T15:23:53.700Z,11.60
2019-04-03T15:25:57.896Z,12.43
2019-04-03T15:28:02.141Z,12.20
2019-04-03T15:30:10.518Z,12.30
2019-04-03T15:32:16.121Z,12.37
2019-04-03T15:34:31.013Z,13.60
2019-04-03T15:36:36.488Z,12.40
2019-04-03T15:38:44.049Z,12.77
2019-04-03T15:40:47.029Z,13.20
2019-04-03T15:42:53.728Z,13.60
2019-04-03T15:44:57.804Z,12.73
2019-04-03T15:47:03.277Z,11.90
2019-04-03T15:49:09.786Z,12.43
2019-04-03T15:51:21.978Z,12.20
2019-04-03T15:53:29.393Z,12.07
2019-04-03T15:55:34.867Z,11.87
2019-04-03T15:57:40.705Z,10.90
2019-04-03T15:59:45.699Z,11.87
2019-04-03T16:01:49.935Z,10.83
2019-04-03T16:03:54.528Z,11.33
2019-04-03T16:05:58.817Z,12.00
2019-04-03T16:08:03.166Z,12.53
2019-04-03T16:10:10.991Z,11.20
2019-04-03T16:12:20.343Z,10.93
2019-04-03T16:14:28.519Z,11.37
2019-04-03T16:16:33.739Z,12.77
2019-04-03T16:18:38.663Z,10.77
2019-04-03T16:20:43.624Z,11.43
2019-04-03T16:22:48.230Z,11.97
2019-04-03T16:24:53.902Z,11.23
2019-04-03T16:26:58.387Z,12.53
2019-04-03T16:29:06.527Z,11.23
2019-04-03T16:31:12.803Z,12.40
2019-04-03T16:33:24.934Z,13.47
2019-04-03T16:35:30.003Z,14.20
2019-04-03T16:37:34.254Z,14.27
2019-04-03T16:39:39.152Z,15.80
2019-04-03T16:41:45.192Z,15.10
2019-04-03T16:43:49.992Z,14.10
2019-04-03T16:45:54.829Z,15.47
2019-04-03T16:47:58.984Z,15.57
2019-04-03T16:50:04.152Z,16.90
2019-04-03T16:52:10.536Z,15.60
2019-04-03T16:54:16.673Z,16.03
2019-04-03T16:56:23.140Z,16.13
2019-04-03T16:58:27.914Z,15.67
2019-04-03T17:00:32.586Z,16.30
2019-04-03T17:02:37.539Z,15.60
2019-04-03T17:04:43.542Z,15.97
2019-04-03T17:06:49.081Z,16.10
2019-04-03T17:08:53.687Z,16.10
2019-04-03T17:10:58.001Z,16.40
2019-04-03T17:13:02.662Z,16.87
2019-04-03T17:15:09.617Z,15.83
2019-04-03T17:17:20.855Z,16.30
2019-04-03T17:19:25.912Z,16.97
2019-04-03T17:21:36.943Z,18.97
2019-04-03T17:23:36.223Z,18.07
2019-04-03T17:25:47.731Z,16.27
2019-04-03T17:27:55.171Z,17.47
2019-04-03T17:29:52.745Z,18.47
2019-04-03T17:31:58.199Z,18.40
2019-04-03T17:34:06.030Z,18.57
2019-04-03T17:36:12.289Z,17.33
2019-04-03T17:38:17.790Z,18.10
2019-04-03T17:40:22.665Z,16.50
2019-04-03T17:42:26.970Z,17.87
2019-04-03T17:44:31.204Z,17.47
2019-04-03T17:46:35.432Z,20.07
2019-04-03T17:48:39.939Z,19.90
2019-04-03T17:50:44.304Z,18.70
2019-04-03T17:52:48.830Z,19.90
2019-04-03T17:54:53.367Z,20.70
2019-04-03T17:56:57.756Z,20.17
2019-04-03T17:59:02.220Z,18.57
2019-04-03T18:01:07.860Z,19.67
2019-04-03T18:03:15.413Z,21.00
2019-04-03T18:05:28.639Z,19.50
2019-04-03T18:07:32.884Z,20.80
2019-04-03T18:09:41.797Z,19.80
2019-04-03T18:11:47.387Z,20.90
2019-04-03T18:13:52.991Z,20.00
2019-04-03T18:15:58.851Z,20.87
2019-04-03T18:18:04.054Z,22.47
2019-04-03T18:20:12.624Z,22.97
2019-04-03T18:22:20.104Z,23.57
2019-04-03T18:24:24.269Z,20.93
2019-04-03T18:26:30.615Z,22.73
2019-04-03T18:28:35.733Z,22.47
2019-04-03T18:30:42.545Z,22.60
2019-04-03T18:32:46.803Z,24.30
2019-04-03T18:34:54.878Z,24.83
2019-04-03T18:36:58.112Z,23.63
2019-04-03T18:39:02.626Z,23.80
2019-04-03T18:41:08.225Z,24.30
2019-04-03T18:43:15.417Z,23.00
2019-04-03T18:45:26.752Z,24.30
2019-04-03T18:47:40.521Z,25.93
2019-04-03T18:49:37.051Z,24.57
2019-04-03T18:51:41.444Z,25.03
2019-04-03T18:53:45.941Z,26.20
2019-04-03T18:55:50.461Z,26.97
2019-04-03T18:57:54.639Z,23.70
2019-04-03T19:00:00.440Z,24.30
2019-04-03T19:02:06.511Z,26.47
2019-04-03T19:04:14.369Z,26.07
2019-04-03T19:06:25.256Z,25.40
2019-04-03T19:08:29.432Z,26.63
2019-04-03T19:10:33.619Z,26.10
2019-04-03T19:12:37.814Z,27.50
2019-04-03T19:14:42.332Z,27.70
2019-04-03T19:16:51.620Z,27.00
2019-04-03T19:18:53.640Z,27.77
2019-04-03T19:20:57.848Z,27.00
2019-04-03T19:23:06.806Z,28.33
2019-04-03T19:25:11.719Z,27.67
2019-04-03T19:27:22.780Z,27.10
2019-04-03T19:29:27.428Z,26.90
2019-04-03T19:31:31.907Z,28.70
2019-04-03T19:33:36.076Z,28.83
2019-04-03T19:35:40.325Z,27.93
2019-04-03T19:37:45.581Z,30.40
2019-04-03T19:39:49.775Z,29.00
2019-04-03T19:41:53.985Z,27.33
2019-04-03T19:44:00.596Z,30.37
2019-04-03T19:46:04.863Z,27.77
2019-04-03T19:48:11.559Z,29.40
2019-04-03T19:50:20.405Z,30.13
2019-04-03T19:52:27.546Z,30.40
2019-04-03T19:54:32.170Z,31.33
2019-04-03T19:56:36.625Z,32.30
2019-04-03T19:58:41.057Z,29.43
2019-04-03T20:00:45.965Z,31.83
2019-04-03T20:02:51.902Z,30.80
2019-04-03T20:04:56.327Z,29.20
2019-04-03T20:07:00.916Z,29.80
2019-04-03T20:09:10.419Z,31.60
2019-04-03T20:11:19.424Z,31.20
2019-04-03T20:13:28.341Z,31.10
2019-04-03T20:15:33.200Z,29.90
2019-04-03T20:17:37.633Z,29.60
2019-04-03T20:19:42.494Z,27.47
2019-04-03T20:21:46.929Z,25.03
2019-04-03T20:23:51.114Z,25.70
2019-04-03T20:25:58.638Z,24.03
2019-04-03T20:28:04.186Z,22.37
2019-04-03T20:30:14.842Z,18.27
2019-04-03T20:32:25.487Z,15.77
2019-04-03T20:34:32.701Z,17.00
2019-04-03T20:36:37.977Z,15.10
2019-04-03T20:38:42.958Z,13.70
2019-04-03T20:40:47.431Z,15.20
2019-04-03T20:42:51.693Z,13.60
2019-04-03T20:44:56.168Z,12.80
2019-04-03T20:47:00.396Z,13.10
2019-04-03T20:49:05.243Z,11.43
2019-04-03T20:51:13.708Z,10.80
2019-04-03T20:53:22.752Z,8.97
2019-04-03T20:55:27.876Z,9.63
2019-04-03T20:57:33.374Z,8.60
2019-04-03T20:59:38.569Z,6.60
2019-04-03T21:01:42.949Z,5.40
2019-04-03T21:03:47.602Z,5.40
2019-04-03T21:05:51.808Z,5.00
2019-04-03T21:07:56.497Z,4.90
2019-04-03T21:10:01.541Z,4.93
2019-04-03T21:12:07.137Z,3.87
2019-04-03T21:14:14.600Z,3.53
2019-04-03T21:16:32.720Z,4.20
2019-04-03T21:18:28.939Z,4.10
2019-04-03T21:20:35.494Z,3.37
2019-04-03T21:22:39.787Z,4.27
2019-04-03T21:24:44.130Z,3.30
2019-04-03T21:26:48.375Z,3.30
2019-04-03T21:28:52.983Z,3.00
2019-04-03T21:30:57.630Z,3.40
2019-04-03T21:33:01.814Z,2.50
2019-04-03T21:35:08.479Z,3.90
2019-04-03T21:37:15.259Z,3.13
2019-04-03T21:39:22.851Z,3.50
2019-04-03T21:41:27.153Z,2.87
2019-04-03T21:43:33.736Z,21.73
2019-04-03T21:45:38.765Z,49.33
2019-04-03T21:47:46.635Z,124.00
2019-04-03T21:49:51.174Z,363.50
2019-04-03T21:51:55.522Z,682.93
2019-04-03T21:54:00.728Z,592.57
2019-04-03T21:56:05.519Z,446.80
2019-04-03T21:58:10.909Z,391.33
2019-04-03T22:00:19.468Z,232.30
2019-04-03T22:02:27.399Z,161.80
2019-04-03T22:04:32.212Z,90.73
2019-04-03T22:06:38.030Z,208.80
2019-04-03T22:08:42.850Z,90.33
2019-04-03T22:10:50.257Z,295.77
2019-04-03T22:12:53.312Z,252.33
2019-04-03T22:14:57.495Z,158.33
2019-04-03T22:17:02.192Z,269.83
2019-04-03T22:19:07.609Z,174.57
2019-04-03T22:21:15.008Z,44.17
2019-04-03T22:23:22.271Z,16.53
2019-04-03T22:25:29.560Z,81.23
2019-04-03T22:27:34.087Z,51.60
2019-04-03T22:29:39.907Z,28.53
2019-04-03T22:31:44.123Z,7.50
2019-04-03T22:33:48.281Z,4.60
2019-04-03T22:35:53.210Z,3.03
2019-04-03T22:37:58.017Z,3.03
2019-04-03T22:40:02.559Z,3.63
2019-04-03T22:42:09.304Z,8.53
2019-04-03T22:44:17.219Z,186.50
2019-04-03T22:46:27.489Z,55.07
2019-04-03T22:48:31.820Z,18.83
2019-04-03T22:50:36.063Z,158.17
2019-04-03T22:52:40.507Z,28.93
2019-04-03T22:54:44.766Z,20.83
2019-04-03T22:56:49.256Z,4.40
2019-04-03T22:58:53.506Z,4.60
2019-04-03T23:00:59.294Z,4.50
2019-04-03T23:03:04.341Z,8.60
2019-04-03T23:05:16.769Z,3.70
2019-04-03T23:07:24.749Z,34.63
2019-04-03T23:09:30.233Z,72.83
2019-04-03T23:11:34.899Z,355.57
2019-04-03T23:13:39.652Z,119.93
2019-04-03T23:15:44.057Z,112.70
2019-04-03T23:17:49.393Z,56.40
2019-04-03T23:19:53.912Z,45.03
2019-04-03T23:21:58.167Z,10.13
2019-04-03T23:24:02.905Z,274.23
2019-04-03T23:26:08.112Z,25.37
2019-04-03T23:28:19.060Z,33.57
2019-04-03T23:30:27.280Z,121.03
2019-04-03T23:32:31.555Z,94.93
2019-04-03T23:34:36.278Z,260.93
2019-04-03T23:36:40.834Z,138.50
2019-04-03T23:38:45.531Z,246.80
2019-04-03T23:40:49.951Z,99.23
2019-04-03T23:42:54.443Z,56.90
2019-04-03T23:44:58.654Z,22.17
2019-04-03T23:47:03.626Z,7.80
2019-04-03T23:49:12.062Z,6.17
2019-04-03T23:51:23.479Z,5.97
2019-04-03T23:53:26.530Z,4.60
2019-04-03T23:55:30.845Z,4.23
2019-04-03T23:57:35.147Z,4.17
2019-04-03T23:59:39.420Z,3.13
